Tutti
Elista Airport (Elista) ESL Meteo
|
Elista (ESL / URWI)
Cielo sereno
Venti calmi |
|
12 °C |
Previsione area Terminal ESL
| Date | Time (MSK) | Flight Rules | Wind Dir. | Speed | Type | Height AGL (ft) | Visibility | Remarks | ||||||
|---|---|---|---|---|---|---|---|---|---|---|---|---|---|---|
Storico METAR ESL recente
| Date | Time (MSK) | Flight Rules | Wind Dir. | Speed | Type | Height AGL (ft) | Visibility | Temp (°C) | Temp (°F) | Dew Point (°C) | Dew Point (°F) | Rel. Humid. | Pressure | Density Altitude | Remarks |
|---|---|---|---|---|---|---|---|---|---|---|---|---|---|---|---|
| 31-ago | 06:30 | VFR | 60° | 2 mps | 10000 meters | 12° | 53° | 4° | 39° | 58% | 1022 mb | -121 ft | |||
| 31-ago | 06:00 | VFR | 90° | 2 mps | 10000 meters | 10° | 50° | 4° | 39° | 66% | 1022 mb | -361 ft | |||
| 31-ago | 05:30 | VFR | 60° | 3 mps | 10000 meters | 10° | 50° | 3° | 37° | 62% | 1022 mb | -361 ft | |||
| 31-ago | 05:00 | VFR | 90° | 3 mps | 10000 meters | 10° | 50° | 5° | 41° | 71% | 1022 mb | -361 ft | |||
| 31-ago | 04:30 | VFR | 110° | 3 mps | 10000 meters | 10° | 50° | 6° | 42° | 76% | 1022 mb | -361 ft | |||
| 31-ago | 04:00 | VFR | 100° | 4 mps | 10000 meters | 11° | 51° | 7° | 44° | 76% | 1022 mb | -241 ft | |||
| 31-ago | 03:30 | VFR | 90° | 4 mps | 10000 meters | 11° | 51° | 5° | 41° | 66% | 1022 mb | -241 ft | |||
| 31-ago | 03:00 | VFR | 130° | 4 mps | 10000 meters | 11° | 51° | 6° | 42° | 71% | 1022 mb | -241 ft | |||
| 31-ago | 02:30 | VFR | 110° | 5 mps | 10000 meters | 12° | 53° | 7° | 44° | 71% | 1022 mb | -121 ft | |||
| 31-ago | 02:00 | VFR | 120° | 3 mps | 10000 meters | 13° | 55° | 7° | 44° | 67% | 1022 mb | -1 ft | |||
| 31-ago | 01:30 | VFR | 130° | 5 mps | 10000 meters | 14° | 57° | 6° | 42° | 58% | 1021 mb | 149 ft | |||
| 31-ago | 01:00 | VFR | 140° | 4 mps | 10000 meters | 12° | 53° | 3° | 37° | 54% | 1021 mb | -91 ft | |||
| 31-ago | 00:30 | VFR | 120° | 4 mps | 10000 meters | 13° | 55° | 3° | 37° | 51% | 1021 mb | 29 ft | |||
| 31-ago | 00:00 | VFR | 120° | 3 mps | 10000 meters | 14° | 57° | 3° | 37° | 47% | 1021 mb | 149 ft | |||
| 30-ago | 23:30 | VFR | 130° | 4 mps | 10000 meters | 15° | 59° | 1° | 33° | 39% | 1021 mb | 269 ft | |||
| 30-ago | 23:00 | VFR | 120° | 4 mps | 10000 meters | 16° | 60° | 0° | 32° | 34% | 1021 mb | 389 ft | |||
| 30-ago | 22:30 | VFR | 110° | 5 mps | 10000 meters | 17° | 62° | -2° | 28° | 27% | 1021 mb | 509 ft | |||
| 30-ago | 22:00 | VFR | 100° | 6 mps | 10000 meters | 16° | 60° | -5° | 23° | 23% | 1021 mb | 389 ft | |||
| 30-ago | 21:30 | VFR | 90° | 6 mps | 10000 meters | 17° | 62° | -5° | 23° | 22% | 1021 mb | 509 ft | |||
| 30-ago | 21:00 | VFR | 90° | 6 mps | 10000 meters | 18° | 64° | -5° | 23° | 20% | 1021 mb | 629 ft | |||
| 30-ago | 20:30 | VFR | 90° | 6 mps | 10000 meters | 18° | 64° | -5° | 23° | 20% | 1021 mb | 629 ft | |||
| 30-ago | 20:00 | VFR | 90° | 5 mps | 10000 meters | 18° | 64° | -5° | 23° | 20% | 1021 mb | 629 ft | |||
| 30-ago | 19:30 | VFR | 100° | 5 mps | 10000 meters | 19° | 66° | -6° | 21° | 18% | 1021 mb | 749 ft | |||
| 30-ago | 19:00 | VFR | 90° | 5 mps | 10000 meters | 20° | 68° | -6° | 21° | 17% | 1020 mb | 898 ft |
Accedi
| Il tuo browser non è supportato. fai l'upgrade del tuo browser |
